Time;durP1;ratioP1;P1;durP2;ratioP2;P2;SDS_P1;SDS_P2;PMS_P1;PMS_P2;Temp;Humidity;BMP_temperature;BMP_pressure;BME280_temperature;BME280_humidity;BME280_pressure;Samples;Min_cycle;Max_cycle;Signal;HPM_P1;HPM_P2
2024/03/19 00:01:30;;;;;;;20.77;9.88;;;;;;;10.73;69.48;100521.22;10365275;28;20138;-60
2024/03/19 00:06:33;;;;;;;27.23;12.13;;;;;;;10.64;69.08;100515.03;10363179;28;20126;-60
2024/03/19 00:11:34;;;;;;;24.55;12.20;;;;;;;10.42;69.86;100519.25;10368418;28;20054;-61
2024/03/19 00:16:35;;;;;;;23.95;12.68;;;;;;;10.27;69.99;100515.59;10359531;28;20246;-61
2024/03/19 00:21:35;;;;;;;27.08;13.00;;;;;;;10.22;70.12;100512.56;10365384;28;20065;-60
2024/03/19 00:26:36;;;;;;;26.38;12.23;;;;;;;10.12;69.89;100512.72;10370722;28;20123;-61
2024/03/19 00:31:36;;;;;;;25.90;12.32;;;;;;;10.03;69.90;100514.59;10365541;28;20053;-60
2024/03/19 00:36:37;;;;;;;26.27;11.95;;;;;;;9.94;69.87;100515.59;10361457;28;20064;-60
2024/03/19 00:41:38;;;;;;;25.50;12.20;;;;;;;9.89;70.04;100521.47;10363076;28;20054;-60
2024/03/19 00:46:39;;;;;;;29.33;13.80;;;;;;;9.69;70.54;100518.25;10368028;28;20061;-60
2024/03/19 00:51:39;;;;;;;34.20;14.35;;;;;;;9.73;70.68;100518.75;10368175;28;20840;-60
2024/03/19 00:56:40;;;;;;;24.63;13.63;;;;;;;9.86;70.04;100518.28;10363182;28;20062;-61
2024/03/19 01:01:40;;;;;;;27.05;12.55;;;;;;;9.81;70.71;100520.63;10362892;28;20420;-61
2024/03/19 01:06:41;;;;;;;32.47;13.75;;;;;;;9.72;70.70;100519.78;10365447;28;20501;-62
2024/03/19 01:11:42;;;;;;;25.50;12.70;;;;;;;9.71;70.71;100524.28;10363691;28;20705;-60
2024/03/19 01:16:42;;;;;;;26.83;11.63;;;;;;;9.88;70.49;100516.25;10363478;28;20528;-60
2024/03/19 01:21:43;;;;;;;27.92;12.18;;;;;;;9.89;70.30;100515.25;10361417;28;20054;-61
2024/03/19 01:26:43;;;;;;;28.80;12.80;;;;;;;9.99;70.33;100513.25;10361832;28;20061;-60
2024/03/19 01:31:44;;;;;;;29.55;11.50;;;;;;;10.19;70.18;100502.13;10358251;28;20045;-62
2024/03/19 01:36:44;;;;;;;25.08;12.50;;;;;;;10.32;69.80;100513.25;10366205;28;20108;-60
2024/03/19 01:41:45;;;;;;;22.45;11.20;;;;;;;10.25;70.70;100509.53;10360076;28;20079;-59
2024/03/19 01:46:45;;;;;;;20.55;10.82;;;;;;;10.48;70.02;100509.69;10351465;28;20054;-60
2024/03/19 01:51:46;;;;;;;20.65;9.63;;;;;;;10.48;69.79;100507.81;10359488;28;20053;-61
2024/03/19 01:56:46;;;;;;;18.02;8.63;;;;;;;10.48;70.13;100507.00;10359619;28;20054;-61
2024/03/19 02:01:47;;;;;;;19.00;9.50;;;;;;;10.45;70.25;100510.88;10362424;28;20500;-60
2024/03/19 02:06:47;;;;;;;15.65;8.30;;;;;;;10.54;69.86;100505.47;10362462;28;20112;-61
2024/03/19 02:11:48;;;;;;;23.27;11.25;;;;;;;10.72;69.89;100503.38;10363771;28;20046;-60
2024/03/19 02:16:48;;;;;;;18.58;9.60;;;;;;;10.63;69.98;100499.91;10362711;28;20069;-60
2024/03/19 02:21:49;;;;;;;19.52;8.75;;;;;;;10.79;69.56;100498.19;10361865;28;20049;-60
2024/03/19 02:26:49;;;;;;;21.13;9.57;;;;;;;10.78;69.57;100488.41;10360808;28;20049;-57
2024/03/19 02:31:50;;;;;;;17.17;8.40;;;;;;;10.62;70.03;100492.00;10348902;28;20058;-57
2024/03/19 02:36:51;;;;;;;23.17;10.27;;;;;;;10.56;70.33;100488.16;10368018;28;20062;-57
2024/03/19 02:41:51;;;;;;;29.48;10.95;;;;;;;10.58;70.30;100485.28;10368818;28;20553;-60
2024/03/19 02:46:52;;;;;;;37.65;12.68;;;;;;;10.60;70.21;100483.28;10350457;28;20091;-57
2024/03/19 02:51:52;;;;;;;31.70;12.30;;;;;;;10.53;70.55;100485.81;10367947;28;20054;-59
2024/03/19 02:56:53;;;;;;;36.90;13.32;;;;;;;10.61;70.82;100485.78;10377771;28;20053;-58
2024/03/19 03:01:56;;;;;;;42.67;14.90;;;;;;;10.59;70.61;100492.38;10365115;28;20493;-57
2024/03/19 03:06:56;;;;;;;43.88;14.50;;;;;;;10.57;71.11;100497.06;10366289;28;20046;-58
2024/03/19 03:11:57;;;;;;;43.30;14.60;;;;;;;10.54;71.29;100498.25;10360186;28;20057;-59
2024/03/19 03:16:58;;;;;;;55.72;18.73;;;;;;;10.68;71.00;100502.91;10364809;28;20559;-58
2024/03/19 03:21:58;;;;;;;74.68;18.30;;;;;;;10.81;71.04;100506.91;10367484;28;20061;-58
2024/03/19 03:26:59;;;;;;;64.90;20.13;;;;;;;11.03;70.66;100497.22;10366587;28;20050;-57
2024/03/19 03:31:59;;;;;;;71.55;21.52;;;;;;;11.16;70.46;100500.19;10364492;28;20054;-57
2024/03/19 03:37:00;;;;;;;59.53;21.58;;;;;;;11.27;70.44;100509.72;10374785;28;20050;-60
2024/03/19 03:42:02;;;;;;;76.15;21.75;;;;;;;11.40;70.56;100509.16;10389997;28;20058;-60
2024/03/19 03:47:03;;;;;;;75.20;22.67;;;;;;;11.44;70.55;100507.78;10397479;28;20072;-60
2024/03/19 03:52:04;;;;;;;66.63;23.25;;;;;;;11.41;71.22;100511.66;10397238;28;20141;-60
2024/03/19 03:57:04;;;;;;;68.75;22.40;;;;;;;11.36;71.11;100521.28;10392948;28;20123;-60
2024/03/19 04:02:05;;;;;;;71.20;22.30;;;;;;;11.36;71.10;100521.28;10383324;28;20077;-60
2024/03/19 04:07:05;;;;;;;73.72;22.00;;;;;;;11.36;71.19;100516.75;10392385;28;20113;-60
2024/03/19 04:12:06;;;;;;;81.78;19.83;;;;;;;11.21;71.84;100523.88;10389386;28;20045;-60
2024/03/19 04:17:07;;;;;;;80.88;21.88;;;;;;;11.30;71.51;100534.44;10379227;28;20515;-60
2024/03/19 04:22:07;;;;;;;84.05;20.55;;;;;;;11.34;71.83;100528.69;10381898;28;20046;-61
2024/03/19 04:27:08;;;;;;;71.85;18.08;;;;;;;11.32;71.72;100520.81;10375955;28;20103;-61
2024/03/19 04:32:09;;;;;;;69.93;19.42;;;;;;;11.37;71.85;100522.94;10381232;28;20076;-60
2024/03/19 04:37:09;;;;;;;62.75;18.05;;;;;;;11.37;72.14;100520.25;10370333;28;20103;-60
2024/03/19 04:42:18;;;;;;;70.88;15.95;;;;;;;11.35;71.85;100528.50;10371983;28;20088;-60
2024/03/19 04:47:19;;;;;;;60.83;18.35;;;;;;;11.35;72.24;100528.50;10368283;28;20058;-58
2024/03/19 04:52:19;;;;;;;73.88;16.52;;;;;;;11.31;72.24;100524.50;10363666;28;20064;-58
2024/03/19 04:57:20;;;;;;;59.00;15.70;;;;;;;11.26;72.53;100525.03;10362208;28;20045;-58
2024/03/19 05:02:21;;;;;;;82.25;15.38;;;;;;;11.29;72.28;100527.38;10364176;28;20046;-58
2024/03/19 05:07:21;;;;;;;70.55;16.02;;;;;;;11.15;72.72;100541.56;10357891;28;20564;-60
2024/03/19 05:12:22;;;;;;;61.45;14.38;;;;;;;11.17;72.44;100536.84;10358676;28;20053;-59
2024/03/19 05:17:23;;;;;;;78.22;16.83;;;;;;;11.25;72.68;100533.28;10358579;28;20549;-58
2024/03/19 05:22:23;;;;;;;80.72;16.77;;;;;;;11.34;72.60;100539.47;10361255;28;20054;-58
2024/03/19 05:27:24;;;;;;;64.22;15.88;;;;;;;11.30;72.38;100539.81;10358980;28;20551;-59
2024/03/19 05:32:24;;;;;;;67.78;16.08;;;;;;;11.31;72.39;100536.13;10408426;28;20264;-61
2024/03/19 05:37:25;;;;;;;65.18;16.70;;;;;;;11.46;72.47;100533.50;10419437;28;20117;-62
2024/03/19 05:42:25;;;;;;;69.75;16.42;;;;;;;11.49;72.25;100543.06;10413305;28;20030;-61
2024/03/19 05:47:26;;;;;;;65.20;15.43;;;;;;;11.37;72.69;100557.94;10416892;28;20092;-61
2024/03/19 05:52:26;;;;;;;59.67;14.65;;;;;;;11.40;72.32;100560.28;10395560;28;20559;-67
2024/03/19 05:57:27;;;;;;;74.25;16.33;;;;;;;11.62;72.41;100555.97;10376932;23;20108;-87
2024/03/19 06:02:28;;;;;;;67.35;16.90;;;;;;;11.68;72.13;100564.16;10319493;28;20101;-87
2024/03/19 06:07:29;;;;;;;61.78;14.20;;;;;;;11.59;72.53;100575.16;10322177;28;20049;-86
2024/03/19 06:12:29;;;;;;;63.55;15.07;;;;;;;11.40;73.06;100579.97;10294463;28;20049;-88
2024/03/19 06:17:30;;;;;;;65.07;15.18;;;;;;;11.49;72.71;100572.66;10338396;28;20109;-87
2024/03/19 06:22:31;;;;;;;64.10;14.88;;;;;;;11.65;72.19;100578.00;10350534;28;20034;-88
2024/03/19 06:27:31;;;;;;;54.15;13.73;;;;;;;11.65;72.61;100578.00;10356597;28;20500;-88
2024/03/19 06:32:34;;;;;;;67.55;14.52;;;;;;;11.47;73.24;100580.09;10373083;23;20058;-87
2024/03/19 06:37:34;;;;;;;55.38;13.40;;;;;;;11.47;72.98;100591.72;10361816;28;20030;-88
2024/03/19 06:42:36;;;;;;;54.58;12.00;;;;;;;11.29;72.73;100583.91;10377808;28;20057;-88
2024/03/19 06:47:37;;;;;;;56.95;11.30;;;;;;;11.26;72.77;100592.31;10395262;28;20048;-88
2024/03/19 06:52:38;;;;;;;46.38;12.30;;;;;;;11.18;73.48;100599.59;10380618;28;20045;-88
2024/03/19 06:57:39;;;;;;;50.85;11.27;;;;;;;11.19;73.12;100609.31;10388186;28;20064;-89
2024/03/19 07:08:57;;;;;;;50.65;10.60;;;;;;;11.34;72.91;100621.03;10430114;28;20129;-92
2024/03/19 07:13:58;;;;;;;44.60;10.95;;;;;;;11.47;72.84;100624.03;10416147;28;20520;-92
2024/03/19 07:18:59;;;;;;;48.78;10.70;;;;;;;11.63;72.79;100624.94;10421577;28;20263;-91
2024/03/19 07:24:00;;;;;;;47.55;11.85;;;;;;;11.83;72.41;100623.50;10430498;28;20415;-92
2024/03/19 07:29:01;;;;;;;41.33;9.77;;;;;;;11.80;72.29;100631.09;10438389;28;20045;-91
2024/03/19 07:34:02;;;;;;;44.60;11.38;;;;;;;11.77;72.32;100629.59;10423572;28;20044;-91
2024/03/19 07:39:11;;;;;;;44.60;12.05;;;;;;;12.11;71.96;100633.78;10421876;28;20053;-92
2024/03/19 07:44:12;;;;;;;50.28;12.25;;;;;;;12.25;71.50;100642.94;10402039;28;20046;-91
2024/03/19 07:49:14;;;;;;;41.05;12.05;;;;;;;12.19;72.04;100644.50;10429230;22;20076;-84
2024/03/19 07:54:15;;;;;;;41.35;12.00;;;;;;;12.29;71.76;100645.09;10385056;28;20052;-89
2024/03/19 07:59:16;;;;;;;38.90;12.60;;;;;;;12.57;71.32;100651.81;10419660;23;20049;-63
2024/03/19 08:04:18;;;;;;;42.92;12.13;;;;;;;12.82;71.15;100655.94;10432268;28;20061;-62
2024/03/19 08:09:19;;;;;;;51.42;13.43;;;;;;;12.97;70.80;100650.56;10430779;28;20030;-63
2024/03/19 08:14:19;;;;;;;57.13;15.18;;;;;;;13.23;70.57;100652.84;10428240;28;20089;-62
2024/03/19 08:19:20;;;;;;;51.28;15.40;;;;;;;13.42;70.16;100664.13;10416664;28;20049;-61
2024/03/19 08:24:20;;;;;;;49.90;13.73;;;;;;;13.55;70.12;100664.31;10404137;28;20087;-62
2024/03/19 08:29:21;;;;;;;42.00;15.63;;;;;;;13.54;70.18;100668.03;10388574;28;20124;-62
2024/03/19 08:34:21;;;;;;;53.30;15.52;;;;;;;13.63;70.01;100672.31;10386028;28;20120;-63
2024/03/19 08:39:24;;;;;;;42.47;14.40;;;;;;;13.78;69.85;100674.97;10381798;28;20145;-63
2024/03/19 08:44:24;;;;;;;44.30;16.33;;;;;;;13.86;69.38;100683.00;10384424;28;20056;-64
2024/03/19 08:49:25;;;;;;;44.80;16.90;;;;;;;14.11;68.91;100689.91;10381863;28;20572;-63
2024/03/19 08:54:25;;;;;;;50.58;17.50;;;;;;;14.33;68.49;100693.47;10358321;28;20046;-63
2024/03/19 08:59:26;;;;;;;47.33;16.50;;;;;;;14.35;68.26;100697.66;10329485;28;20084;-64
2024/03/19 09:04:26;;;;;;;48.00;17.10;;;;;;;14.47;67.85;100692.56;10330123;28;20042;-63
2024/03/19 09:09:27;;;;;;;48.75;17.33;;;;;;;14.52;67.96;100695.56;10336263;28;20054;-64
2024/03/19 09:14:28;;;;;;;42.03;16.08;;;;;;;14.60;67.55;100694.63;10342138;28;20042;-65
2024/03/19 09:19:38;;;;;;;50.92;16.90;;;;;;;14.70;67.22;100697.81;10332531;28;20065;-64
2024/03/19 09:24:39;;;;;;;41.75;15.75;;;;;;;14.81;66.90;100699.16;10330274;28;20093;-64
2024/03/19 09:29:39;;;;;;;41.60;15.60;;;;;;;15.01;66.37;100704.75;10320589;28;20058;-64
2024/03/19 09:34:40;;;;;;;38.58;15.52;;;;;;;15.15;65.91;100705.69;10317465;28;20050;-64
2024/03/19 09:39:41;;;;;;;34.97;14.25;;;;;;;15.21;65.71;100704.91;10313901;28;20065;-64
2024/03/19 09:44:42;;;;;;;35.88;13.63;;;;;;;15.33;65.12;100710.59;10306274;28;20050;-63
2024/03/19 09:49:45;;;;;;;35.33;14.32;;;;;;;15.25;65.22;100709.72;10320913;28;20133;-63
2024/03/19 09:54:45;;;;;;;36.40;15.65;;;;;;;15.40;64.91;100716.88;10307978;28;20061;-63
2024/03/19 09:59:46;;;;;;;36.03;14.88;;;;;;;15.56;64.22;100708.47;10318062;28;20064;-64
2024/03/19 10:04:48;;;;;;;34.47;14.27;;;;;;;15.54;64.14;100706.97;10322441;28;20077;-64
2024/03/19 10:09:51;;;;;;;33.80;14.73;;;;;;;15.64;63.73;100707.47;10317609;28;20054;-64
2024/03/19 10:14:53;;;;;;;35.53;14.68;;;;;;;15.73;63.14;100716.28;10317069;28;20050;-64
2024/03/19 10:19:55;;;;;;;35.10;15.80;;;;;;;15.83;63.14;100719.44;10320258;28;20050;-64
2024/03/19 10:24:56;;;;;;;36.42;15.98;;;;;;;15.96;62.94;100718.69;10321692;28;20057;-64
2024/03/19 10:29:57;;;;;;;38.92;15.98;;;;;;;15.88;63.01;100718.84;10316973;28;20049;-64
2024/03/19 10:35:00;;;;;;;41.42;16.10;;;;;;;15.88;62.79;100713.41;10318776;28;20101;-64
2024/03/19 10:40:03;;;;;;;40.10;16.75;;;;;;;15.92;62.52;100718.25;10315094;28;20050;-63
2024/03/19 10:45:05;;;;;;;36.63;16.58;;;;;;;15.90;62.31;100714.91;10320143;28;20050;-63
2024/03/19 10:50:11;;;;;;;31.30;15.57;;;;;;;15.88;62.02;100713.41;10329800;28;20444;-63
2024/03/19 10:55:15;;;;;;;29.30;14.88;;;;;;;15.78;62.05;100711.94;10334915;28;20086;-63
2024/03/19 11:00:27;;;;;;;34.20;15.55;;;;;;;15.49;62.34;100715.69;10327072;28;20042;-63
2024/03/19 11:05:28;;;;;;;38.38;16.73;;;;;;;15.95;61.71;100706.16;10326730;28;20448;-62
2024/03/19 11:10:35;;;;;;;39.67;17.52;;;;;;;16.14;60.74;100708.09;10325879;28;20177;-61
2024/03/19 11:15:36;;;;;;;37.43;15.10;;;;;;;16.33;60.71;100711.06;10329132;28;20076;-60
2024/03/19 11:20:43;;;;;;;28.75;13.13;;;;;;;16.46;60.34;100711.09;10334731;28;20285;-61
2024/03/19 11:25:43;;;;;;;29.97;14.87;;;;;;;16.63;60.27;100706.13;10329855;28;20050;-65
2024/03/19 11:30:47;;;;;;;30.33;15.07;;;;;;;17.10;58.43;100700.72;10325113;28;20046;-65
2024/03/19 11:48:24;;;;;;;28.92;13.25;;;;;;;18.03;55.98;100689.63;10364562;28;20041;-64
2024/03/19 11:53:26;;;;;;;27.17;12.53;;;;;;;19.91;51.94;100678.81;10379445;28;20033;-64
2024/03/19 11:58:31;;;;;;;25.27;12.73;;;;;;;21.17;49.22;100671.41;10380677;28;20088;-64
2024/03/19 12:03:32;;;;;;;27.77;13.90;;;;;;;21.62;48.17;100660.88;10384500;28;20045;-63
2024/03/19 12:08:33;;;;;;;26.92;15.70;;;;;;;21.83;48.65;100652.03;10374795;28;20069;-64
2024/03/19 12:13:35;;;;;;;31.17;16.30;;;;;;;22.67;46.94;100645.06;10367215;28;20030;-64
2024/03/19 12:18:35;;;;;;;31.05;15.88;;;;;;;25.82;41.00;100638.63;10377468;28;20034;-64
2024/03/19 12:23:37;;;;;;;28.90;15.30;;;;;;;28.85;35.70;100633.09;10378510;28;20127;-64
2024/03/19 12:28:41;;;;;;;28.48;15.05;;;;;;;29.90;34.20;100632.44;10377823;28;20045;-64
2024/03/19 12:33:50;;;;;;;28.63;15.85;;;;;;;30.29;33.32;100641.56;10375290;28;20041;-65
2024/03/19 12:38:53;;;;;;;25.80;13.80;;;;;;;31.52;31.38;100640.25;10377362;28;20098;-65
2024/03/19 12:43:53;;;;;;;27.23;15.75;;;;;;;31.25;31.16;100629.94;10372918;28;20072;-65
2024/03/19 12:48:54;;;;;;;26.92;15.18;;;;;;;30.67;31.60;100627.63;10372871;28;20053;-65
2024/03/19 12:53:54;;;;;;;24.95;14.85;;;;;;;31.19;30.40;100625.59;10371500;28;20076;-65
2024/03/19 12:58:55;;;;;;;25.92;14.40;;;;;;;31.09;30.03;100614.69;10346079;28;20057;-66
2024/03/19 13:03:55;;;;;;;27.73;15.25;;;;;;;30.84;30.17;100623.16;10319175;28;21048;-66
2024/03/19 13:08:56;;;;;;;24.92;14.13;;;;;;;31.09;29.58;100618.28;10321576;28;20074;-67
2024/03/19 13:13:56;;;;;;;23.10;14.98;;;;;;;30.88;29.42;100620.59;10316855;28;20458;-67
2024/03/19 13:18:57;;;;;;;25.83;15.25;;;;;;;30.06;30.11;100624.72;10319282;28;20058;-67
2024/03/19 13:23:57;;;;;;;24.45;14.70;;;;;;;29.58;30.35;100622.03;10304864;28;20053;-64
2024/03/19 13:28:58;;;;;;;24.25;14.05;;;;;;;29.65;30.72;100614.19;10322178;28;20540;-64
2024/03/19 13:33:59;;;;;;;21.90;13.43;;;;;;;30.37;29.10;100613.16;10323816;28;20124;-65
2024/03/19 13:38:59;;;;;;;23.25;13.13;;;;;;;30.49;29.05;100604.38;10320545;28;20042;-65
2024/03/19 13:44:00;;;;;;;21.65;12.45;;;;;;;30.60;28.75;100592.78;10319348;28;20049;-65
2024/03/19 13:49:00;;;;;;;25.10;13.15;;;;;;;31.72;27.29;100588.13;10317824;28;20042;-65
2024/03/19 13:54:04;;;;;;;23.25;12.88;;;;;;;31.60;27.66;100583.91;10320178;28;20081;-64
2024/03/19 13:59:05;;;;;;;21.50;13.27;;;;;;;32.35;27.07;100584.41;10297049;28;20062;-64
2024/03/19 14:04:06;;;;;;;22.67;13.15;;;;;;;32.02;27.30;100583.81;10268280;28;20482;-65
2024/03/19 14:09:07;;;;;;;20.92;12.73;;;;;;;29.98;29.16;100589.38;10328199;23;20157;-89
2024/03/19 14:14:08;;;;;;;20.15;12.38;;;;;;;30.04;28.52;100588.97;10303702;28;20109;-89
2024/03/19 14:19:13;;;;;;;19.35;12.10;;;;;;;30.37;27.93;100586.28;10324256;28;20041;-89
2024/03/19 14:24:14;;;;;;;19.17;11.27;;;;;;;30.32;27.97;100574.44;10355727;28;20148;-89
2024/03/19 14:34:31;;;;;;;21.63;12.15;;;;;;;29.74;28.99;100564.47;10285418;28;20046;-91
2024/03/19 14:39:34;;;;;;;18.98;10.57;;;;;;;30.35;27.68;100559.94;10259356;28;20494;-90
2024/03/19 14:44:34;;;;;;;24.23;11.50;;;;;;;31.36;26.54;100559.13;10255867;28;20054;-89
2024/03/19 14:49:35;;;;;;;21.65;11.05;;;;;;;31.28;26.90;100564.56;10258880;28;20061;-89
2024/03/19 14:54:36;;;;;;;22.10;11.70;;;;;;;31.91;26.08;100562.91;10376444;23;20086;-89
2024/03/19 14:59:36;;;;;;;13.65;9.15;;;;;;;32.02;26.14;100556.00;10350666;28;20192;-89
2024/03/19 15:04:37;;;;;;;16.15;9.68;;;;;;;31.90;25.55;100564.06;10305595;28;20792;-89
2024/03/19 15:09:38;;;;;;;11.38;7.07;;;;;;;31.49;25.87;100545.56;10271997;28;20142;-89
2024/03/19 15:14:39;;;;;;;12.38;7.28;;;;;;;31.18;26.17;100543.38;10280732;28;20484;-89
2024/03/19 15:19:44;;;;;;;13.55;6.55;;;;;;;30.81;25.70;100546.06;10296283;28;20046;-89
2024/03/19 15:24:45;;;;;;;15.95;7.75;;;;;;;29.53;27.13;100545.34;10294642;28;20421;-89
2024/03/19 15:29:46;;;;;;;13.27;7.43;;;;;;;28.01;28.60;100539.19;10309683;28;20052;-88
2024/03/19 15:34:48;;;;;;;10.45;5.95;;;;;;;27.71;28.93;100537.44;10285179;28;20039;-86
2024/03/19 15:39:49;;;;;;;9.32;5.45;;;;;;;27.36;29.27;100538.47;10307039;28;20050;-86
2024/03/19 15:44:49;;;;;;;11.02;5.57;;;;;;;27.35;29.39;100543.16;10301507;28;20055;-87
2024/03/19 15:49:50;;;;;;;13.18;5.50;;;;;;;27.22;29.00;100541.81;10287931;28;20093;-86
2024/03/19 15:54:51;;;;;;;10.68;4.55;;;;;;;27.05;29.00;100553.22;10286218;28;20493;-86
2024/03/19 15:59:52;;;;;;;7.60;3.05;;;;;;;26.76;29.35;100566.78;10308596;23;20065;-65
2024/03/19 16:04:52;;;;;;;6.90;3.58;;;;;;;26.27;29.46;100559.91;10305460;28;20042;-66
2024/03/19 16:09:53;;;;;;;10.35;4.20;;;;;;;25.95;30.20;100567.59;10306472;28;20051;-63
2024/03/19 16:14:54;;;;;;;6.57;3.38;;;;;;;25.61;30.57;100566.16;10305127;28;20743;-63
2024/03/19 16:19:54;;;;;;;5.82;3.47;;;;;;;24.91;31.50;100574.59;10306358;28;20050;-63
2024/03/19 16:24:57;;;;;;;6.60;3.83;;;;;;;24.66;31.83;100583.50;10290224;28;20054;-63
2024/03/19 16:29:58;;;;;;;8.50;3.30;;;;;;;24.30;31.86;100574.97;10307578;28;20057;-68
2024/03/19 16:34:58;;;;;;;9.68;4.50;;;;;;;23.84;32.76;100574.53;10314827;28;20469;-63
2024/03/19 16:40:03;;;;;;;8.10;3.95;;;;;;;23.46;33.52;100568.06;10313695;28;20468;-61
2024/03/19 16:45:04;;;;;;;8.35;3.22;;;;;;;23.15;33.42;100564.13;10308831;28;20054;-62
2024/03/19 16:50:05;;;;;;;6.30;3.33;;;;;;;22.73;34.31;100559.94;10307864;28;20061;-62
2024/03/19 16:55:07;;;;;;;6.13;3.25;;;;;;;22.25;34.52;100569.59;10318684;28;20062;-59
2024/03/19 17:00:10;;;;;;;7.07;3.05;;;;;;;21.97;34.68;100581.38;10377445;23;20477;-86
2024/03/19 17:05:11;;;;;;;5.50;2.92;;;;;;;21.53;35.41;100581.94;10299646;28;20039;-86
2024/03/19 17:10:12;;;;;;;8.38;3.17;;;;;;;21.02;36.31;100583.56;10296011;28;20046;-85
2024/03/19 17:15:13;;;;;;;12.13;4.18;;;;;;;20.58;37.29;100589.38;10305136;28;20050;-85
2024/03/19 17:20:15;;;;;;;17.52;7.65;;;;;;;20.13;37.86;100606.25;10319357;28;20054;-85
2024/03/19 17:25:17;;;;;;;24.05;9.07;;;;;;;19.66;38.65;100619.69;10326785;23;20061;-88
2024/03/19 17:30:18;;;;;;;8.10;3.25;;;;;;;19.21;39.17;100615.41;10195339;28;20058;-87
2024/03/19 17:35:18;;;;;;;6.10;3.25;;;;;;;18.75;40.23;100616.66;10196209;28;20051;-87
2024/03/19 17:40:19;;;;;;;5.72;2.75;;;;;;;18.41;41.31;100623.44;10204932;28;20434;-87
2024/03/19 17:45:20;;;;;;;6.97;2.47;;;;;;;18.05;41.76;100624.94;10200096;28;20379;-90
2024/03/19 17:50:20;;;;;;;5.80;2.78;;;;;;;17.71;42.64;100628.84;10218328;28;20071;-87
2024/03/19 17:55:22;;;;;;;9.02;3.40;;;;;;;17.31;43.77;100629.00;10197155;29;20103;-87
2024/03/19 18:00:23;;;;;;;10.88;3.78;;;;;;;16.94;44.86;100631.38;10247792;29;20082;-85
2024/03/19 18:05:24;;;;;;;11.55;4.10;;;;;;;16.51;45.86;100646.19;10262987;23;20074;-66
2024/03/19 18:10:25;;;;;;;14.27;3.63;;;;;;;16.24;46.47;100653.47;10329718;28;20061;-66
2024/03/19 18:15:26;;;;;;;6.72;2.92;;;;;;;15.97;47.20;100663.41;10327669;28;20065;-67
2024/03/19 18:20:27;;;;;;;8.18;3.08;;;;;;;15.67;47.79;100669.94;10330974;28;20142;-68
2024/03/19 18:25:28;;;;;;;9.05;3.78;;;;;;;15.39;48.71;100661.88;10327559;28;20415;-68
2024/03/19 18:30:28;;;;;;;11.55;3.30;;;;;;;15.17;48.91;100671.13;10324802;28;20041;-67
2024/03/19 18:35:29;;;;;;;10.18;3.92;;;;;;;14.97;49.78;100668.25;10324808;28;20136;-67
2024/03/19 18:40:29;;;;;;;14.30;4.85;;;;;;;14.69;50.33;100674.50;10328051;28;20433;-68
2024/03/19 18:45:30;;;;;;;6.15;3.20;;;;;;;14.50;50.80;100670.56;10325428;28;20050;-66
2024/03/19 18:50:30;;;;;;;8.23;4.30;;;;;;;14.31;51.23;100671.19;10323912;28;20497;-64
2024/03/19 18:55:31;;;;;;;9.95;4.22;;;;;;;14.16;51.70;100679.34;10311933;28;20046;-64
2024/03/19 19:00:32;;;;;;;9.32;4.97;;;;;;;13.99;52.27;100676.88;10300057;28;20053;-63
2024/03/19 19:05:32;;;;;;;11.68;5.00;;;;;;;13.84;52.82;100685.06;10303099;28;20078;-64
2024/03/19 19:10:33;;;;;;;9.77;4.82;;;;;;;13.65;53.39;100691.88;10296865;28;20047;-62
2024/03/19 19:15:33;;;;;;;9.02;4.85;;;;;;;13.51;53.95;100690.03;10301955;28;20052;-64
2024/03/19 19:20:34;;;;;;;16.30;6.03;;;;;;;13.27;54.47;100702.75;10299496;28;20051;-60
2024/03/19 19:25:34;;;;;;;13.10;5.88;;;;;;;13.08;55.05;100704.09;10300285;28;20142;-63
2024/03/19 19:30:39;;;;;;;10.10;5.18;;;;;;;12.92;55.68;100701.56;10300598;28;20046;-61
2024/03/19 19:35:40;;;;;;;16.38;5.53;;;;;;;12.79;56.12;100699.47;10298051;28;20116;-62
2024/03/19 19:40:41;;;;;;;15.50;6.50;;;;;;;12.79;56.44;100695.94;10300419;28;20042;-61
2024/03/19 19:45:41;;;;;;;11.52;4.95;;;;;;;12.67;56.43;100699.06;10295518;28;20651;-61
2024/03/19 19:50:42;;;;;;;13.30;5.72;;;;;;;12.53;57.04;100707.94;10299640;28;20367;-60
2024/03/19 19:55:42;;;;;;;17.80;5.57;;;;;;;12.37;57.87;100711.59;10299875;28;20057;-62
2024/03/19 20:00:45;;;;;;;14.27;6.25;;;;;;;12.27;57.93;100711.00;10339924;28;20565;-63
2024/03/19 20:05:46;;;;;;;14.20;6.85;;;;;;;12.25;57.94;100708.47;10336516;28;20057;-64
2024/03/19 20:10:46;;;;;;;14.43;7.22;;;;;;;12.15;58.42;100713.25;10314951;28;20042;-66
2024/03/19 20:15:47;;;;;;;12.13;6.13;;;;;;;12.07;59.00;100716.84;10341236;28;20046;-63
2024/03/19 20:20:48;;;;;;;14.93;5.70;;;;;;;11.95;58.96;100702.09;10329084;28;20050;-66
2024/03/19 20:25:49;;;;;;;10.88;5.30;;;;;;;11.86;59.00;100700.41;10309041;28;20046;-65
2024/03/19 20:30:49;;;;;;;12.40;5.13;;;;;;;11.74;59.40;100705.34;10332861;28;20476;-63
2024/03/19 20:35:50;;;;;;;12.48;5.88;;;;;;;11.63;59.21;100703.88;10322616;28;20060;-63
2024/03/19 20:40:50;;;;;;;12.50;6.07;;;;;;;11.50;60.08;100704.41;10330764;28;20054;-65
2024/03/19 20:45:57;;;;;;;12.38;6.22;;;;;;;11.42;60.00;100709.00;10404439;27;20594;-64
2024/03/19 20:50:58;;;;;;;12.18;5.95;;;;;;;11.24;60.56;100707.34;10406944;28;20073;-63
2024/03/19 20:55:58;;;;;;;9.80;4.70;;;;;;;11.17;60.83;100714.41;10400165;28;20096;-63
2024/03/19 21:00:59;;;;;;;13.85;6.80;;;;;;;11.22;60.77;100711.25;10429363;28;20523;-64
2024/03/19 21:05:59;;;;;;;15.90;7.63;;;;;;;11.17;60.94;100700.97;10414765;28;20518;-65
2024/03/19 21:11:00;;;;;;;11.70;5.85;;;;;;;11.14;60.92;100705.84;10421697;28;20459;-65
2024/03/19 21:16:00;;;;;;;12.07;6.20;;;;;;;11.07;60.83;100716.47;10452541;28;20049;-64
2024/03/19 21:21:01;;;;;;;13.00;5.25;;;;;;;10.96;60.87;100717.66;10442700;28;20052;-64
2024/03/19 21:26:01;;;;;;;15.27;4.90;;;;;;;10.85;61.29;100721.53;10411637;28;20092;-64
2024/03/19 21:31:02;;;;;;;8.10;4.60;;;;;;;10.76;61.73;100722.53;10443545;28;20077;-63
2024/03/19 21:36:04;;;;;;;9.05;4.93;;;;;;;10.67;61.30;100732.44;10445916;28;20160;-63
2024/03/19 21:41:04;;;;;;;12.02;4.35;;;;;;;10.59;61.74;100728.91;10456519;28;20037;-64
2024/03/19 21:46:05;;;;;;;9.63;5.07;;;;;;;10.47;62.09;100721.16;10429108;28;20091;-64
2024/03/19 21:51:05;;;;;;;10.38;5.20;;;;;;;10.20;62.87;100714.19;10423423;28;20072;-64
2024/03/19 21:56:06;;;;;;;15.85;6.25;;;;;;;10.14;63.07;100712.19;10404827;28;20042;-63
2024/03/19 22:01:07;;;;;;;13.38;5.55;;;;;;;10.20;62.88;100703.47;10407166;28;20042;-64
2024/03/19 22:06:07;;;;;;;10.32;5.28;;;;;;;10.15;62.69;100703.13;10393968;28;20049;-65
2024/03/19 22:11:08;;;;;;;14.70;5.28;;;;;;;10.04;63.00;100712.31;10399447;28;20049;-64
2024/03/19 22:16:09;;;;;;;9.48;5.03;;;;;;;10.05;63.10;100700.59;10399460;28;20034;-64
2024/03/19 22:21:10;;;;;;;10.98;4.90;;;;;;;9.88;63.48;100710.41;10381525;28;20046;-65
2024/03/19 22:26:10;;;;;;;13.82;5.32;;;;;;;9.78;63.90;100707.03;10376902;28;20037;-66
2024/03/19 22:31:11;;;;;;;10.63;5.03;;;;;;;9.81;63.73;100708.53;10380780;28;20105;-65
2024/03/19 22:36:14;;;;;;;12.48;5.68;;;;;;;9.83;63.53;100703.84;10380009;28;20055;-66
2024/03/19 22:41:14;;;;;;;12.40;5.50;;;;;;;9.83;63.72;100699.31;10388664;28;20061;-66
2024/03/19 22:46:15;;;;;;;11.02;5.50;;;;;;;9.76;63.75;100706.34;10379566;28;20373;-63
2024/03/19 22:51:15;;;;;;;10.45;4.78;;;;;;;9.72;63.88;100699.63;10380731;28;20046;-64
2024/03/19 22:56:16;;;;;;;10.25;5.60;;;;;;;9.63;64.18;100698.75;10364389;28;20046;-65
2024/03/19 23:01:16;;;;;;;13.27;5.50;;;;;;;9.64;63.72;100695.06;10383654;28;20136;-65
2024/03/19 23:06:17;;;;;;;10.05;5.05;;;;;;;9.64;63.91;100697.75;10377985;28;20119;-65